Time;durP1;ratioP1;P1;durP2;ratioP2;P2;SDS_P1;SDS_P2;PMS_P1;PMS_P2;Temp;Humidity;BMP_temperature;BMP_pressure;BME280_temperature;BME280_humidity;BME280_pressure;Samples;Min_cycle;Max_cycle;Signal;HPM_P1;HPM_P2
2021/09/18 00:02:18;;;;;;;11.97;10.33;;;;;;;;;;779920;178;915207;-63
2021/09/18 00:04:44;;;;;;;16.37;12.25;;;;;;;;;;777985;178;916019;-65
2021/09/18 00:07:10;;;;;;;13.30;10.47;;;;;;;;;;781363;178;918142;-63
2021/09/18 00:09:36;;;;;;;13.20;10.77;;;;;;;;;;764359;182;919230;-63
2021/09/18 00:12:02;;;;;;;13.77;11.37;;;;;;;;;;764286;182;919046;-63
2021/09/18 00:14:28;;;;;;;13.37;10.60;;;;;;;;;;782898;178;919211;-65
2021/09/18 00:16:53;;;;;;;16.87;11.43;;;;;;;;;;786233;177;920070;-64
2021/09/18 00:19:19;;;;;;;14.17;10.80;;;;;;;;;;765243;180;919552;-63
2021/09/18 00:21:45;;;;;;;13.27;11.20;;;;;;;;;;775576;176;918049;-62
2021/09/18 00:24:11;;;;;;;14.03;12.00;;;;;;;;;;780877;178;920995;-63
2021/09/18 00:26:37;;;;;;;17.57;11.40;;;;;;;;;;778308;178;919375;-64
2021/09/18 00:29:03;;;;;;;14.47;11.27;;;;;;;;;;767924;179;919310;-64
2021/09/18 00:31:29;;;;;;;27.02;10.60;;;;;;;;;;773402;179;850320;-63
2021/09/18 00:33:54;;;;;;;12.43;9.93;;;;;;;;;;773408;177;918942;-63
2021/09/18 00:36:20;;;;;;;13.32;10.27;;;;;;;;;;766058;179;1738164;-63
2021/09/18 00:38:46;;;;;;;17.00;13.47;;;;;;;;;;786274;176;920335;-63
2021/09/18 00:41:12;;;;;;;18.90;14.10;;;;;;;;;;768355;179;918925;-64
2021/09/18 00:43:38;;;;;;;17.30;13.83;;;;;;;;;;771179;177;918545;-64
2021/09/18 00:46:04;;;;;;;18.70;14.20;;;;;;;;;;780699;176;940638;-62
2021/09/18 00:48:30;;;;;;;16.93;13.80;;;;;;;;;;768652;180;919354;-64
2021/09/18 00:50:56;;;;;;;16.70;13.70;;;;;;;;;;769063;179;1226640;-63
2021/09/18 00:53:22;;;;;;;17.63;13.80;;;;;;;;;;767957;179;918925;-63
2021/09/18 00:55:47;;;;;;;17.37;13.47;;;;;;;;;;777473;179;919404;-63
2021/09/18 00:58:13;;;;;;;17.77;14.67;;;;;;;;;;755843;183;918342;-64
2021/09/18 01:00:39;;;;;;;18.40;12.93;;;;;;;;;;771728;180;918817;-63
2021/09/18 01:03:05;;;;;;;17.27;13.40;;;;;;;;;;776393;179;919906;-64
2021/09/18 01:05:31;;;;;;;18.07;14.17;;;;;;;;;;768270;179;919170;-63
2021/09/18 01:07:57;;;;;;;17.45;14.23;;;;;;;;;;768893;179;919034;-64
2021/09/18 01:10:23;;;;;;;15.50;13.33;;;;;;;;;;784023;176;918676;-63
2021/09/18 01:12:55;;;;;;;20.27;12.80;;;;;;;;;;775207;177;919158;-64
2021/09/18 01:15:20;;;;;;;17.90;12.67;;;;;;;;;;774142;179;918498;-63
2021/09/18 01:17:46;;;;;;;13.60;12.10;;;;;;;;;;767356;179;919032;-63
2021/09/18 01:20:13;;;;;;;16.37;13.50;;;;;;;;;;775480;179;919939;-64
2021/09/18 01:22:38;;;;;;;16.33;11.87;;;;;;;;;;781097;175;919191;-63
2021/09/18 01:25:05;;;;;;;14.98;12.00;;;;;;;;;;778906;175;919510;-63
2021/09/18 01:27:30;;;;;;;18.60;13.07;;;;;;;;;;774143;179;920151;-67
2021/09/18 01:29:56;;;;;;;31.50;15.10;;;;;;;;;;767828;177;920579;-64
2021/09/18 01:32:22;;;;;;;20.95;14.52;;;;;;;;;;771018;180;919055;-63
2021/09/18 01:34:48;;;;;;;20.93;14.80;;;;;;;;;;778502;177;919541;-62
2021/09/18 01:37:14;;;;;;;20.00;13.83;;;;;;;;;;770509;178;916260;-63
2021/09/18 01:39:40;;;;;;;20.67;15.37;;;;;;;;;;765694;180;920111;-63
2021/09/18 01:42:06;;;;;;;20.00;13.97;;;;;;;;;;754310;183;986811;-63
2021/09/18 01:44:32;;;;;;;18.10;14.20;;;;;;;;;;783280;177;919476;-62
2021/09/18 01:46:57;;;;;;;18.50;13.97;;;;;;;;;;786696;175;920842;-62
2021/09/18 01:49:25;;;;;;;18.20;14.30;;;;;;;;;;760494;182;919051;-62
2021/09/18 01:51:58;;;;;;;21.65;14.02;;;;;;;;;;787136;178;919943;-63
2021/09/18 01:54:21;;;;;;;21.57;15.37;;;;;;;;;;782491;178;919483;-62
2021/09/18 01:56:47;;;;;;;19.57;12.87;;;;;;;;;;780004;178;919497;-63
2021/09/18 01:59:13;;;;;;;17.70;13.30;;;;;;;;;;778895;178;1029248;-63
2021/09/18 02:01:38;;;;;;;18.43;12.53;;;;;;;;;;784103;177;919435;-64
2021/09/18 02:04:04;;;;;;;14.73;11.90;;;;;;;;;;779331;177;916873;-62
2021/09/18 02:06:30;;;;;;;14.97;12.27;;;;;;;;;;785202;175;914948;-64
2021/09/18 02:08:56;;;;;;;35.65;13.50;;;;;;;;;;798232;175;915599;-63
2021/09/18 02:11:22;;;;;;;14.40;11.50;;;;;;;;;;793264;174;1119798;-63
2021/09/18 02:13:48;;;;;;;16.07;12.83;;;;;;;;;;790079;174;919030;-63
2021/09/18 02:16:14;;;;;;;15.90;12.60;;;;;;;;;;797887;175;629911;-62
2021/09/18 02:18:40;;;;;;;16.37;13.67;;;;;;;;;;792755;174;918139;-62
2021/09/18 02:21:05;;;;;;;19.33;12.30;;;;;;;;;;797063;175;618954;-62
2021/09/18 02:23:31;;;;;;;15.67;11.27;;;;;;;;;;796480;175;619707;-63
2021/09/18 02:25:57;;;;;;;14.60;11.17;;;;;;;;;;802000;174;624285;-63
2021/09/18 02:28:23;;;;;;;13.73;10.67;;;;;;;;;;793006;174;919044;-62
2021/09/18 02:30:49;;;;;;;13.33;10.83;;;;;;;;;;787160;175;918832;-62
2021/09/18 02:33:15;;;;;;;14.23;10.60;;;;;;;;;;790334;175;766290;-62
2021/09/18 02:35:40;;;;;;;15.95;11.60;;;;;;;;;;780911;178;826306;-63
2021/09/18 02:38:06;;;;;;;15.13;10.63;;;;;;;;;;794705;175;644598;-63
2021/09/18 02:40:32;;;;;;;14.93;12.40;;;;;;;;;;796496;174;918523;-62
2021/09/18 02:42:58;;;;;;;17.77;11.73;;;;;;;;;;792030;175;919611;-63
2021/09/18 02:45:24;;;;;;;13.97;10.90;;;;;;;;;;793947;175;918189;-63
2021/09/18 02:47:50;;;;;;;15.63;10.93;;;;;;;;;;791558;174;919529;-63
2021/09/18 02:50:16;;;;;;;15.63;10.90;;;;;;;;;;775818;177;873495;-62
2021/09/18 02:52:42;;;;;;;14.43;10.57;;;;;;;;;;778669;177;918844;-62
2021/09/18 02:55:08;;;;;;;15.57;10.98;;;;;;;;;;750394;183;918808;-62
2021/09/18 02:57:34;;;;;;;17.70;12.27;;;;;;;;;;774094;180;893560;-62
2021/09/18 03:00:00;;;;;;;17.67;13.47;;;;;;;;;;794038;175;921064;-62
2021/09/18 03:02:26;;;;;;;20.17;14.93;;;;;;;;;;795539;176;919747;-62
2021/09/18 03:04:52;;;;;;;18.90;14.50;;;;;;;;;;793033;175;920163;-62
2021/09/18 03:07:17;;;;;;;21.17;14.37;;;;;;;;;;798701;176;918283;-62
2021/09/18 03:09:43;;;;;;;19.63;14.00;;;;;;;;;;790307;175;919513;-62
2021/09/18 03:12:09;;;;;;;26.00;16.50;;;;;;;;;;773693;177;918887;-62
2021/09/18 03:14:35;;;;;;;22.90;14.82;;;;;;;;;;771400;180;919119;-62
2021/09/18 03:17:01;;;;;;;18.57;14.97;;;;;;;;;;778990;178;918831;-62
2021/09/18 03:19:27;;;;;;;27.70;15.83;;;;;;;;;;778937;178;1020497;-62
2021/09/18 03:21:53;;;;;;;25.83;14.87;;;;;;;;;;784455;178;918766;-62
2021/09/18 03:24:19;;;;;;;24.47;16.33;;;;;;;;;;777217;178;919063;-62
2021/09/18 03:26:45;;;;;;;19.50;15.67;;;;;;;;;;768298;177;918981;-62
2021/09/18 03:29:11;;;;;;;24.25;17.12;;;;;;;;;;770893;180;918712;-61
2021/09/18 03:31:37;;;;;;;22.47;16.80;;;;;;;;;;767021;181;919378;-63
2021/09/18 03:34:03;;;;;;;23.03;16.27;;;;;;;;;;766238;181;919964;-62
2021/09/18 03:36:29;;;;;;;22.30;15.23;;;;;;;;;;763289;181;920232;-62
2021/09/18 03:38:55;;;;;;;25.50;16.03;;;;;;;;;;764157;180;919176;-62
2021/09/18 03:41:21;;;;;;;21.87;16.40;;;;;;;;;;763938;180;918584;-62
2021/09/18 03:43:47;;;;;;;21.55;15.43;;;;;;;;;;771862;180;1019907;-62
2021/09/18 03:46:13;;;;;;;21.63;14.23;;;;;;;;;;776699;180;919701;-62
2021/09/18 03:48:39;;;;;;;23.43;15.83;;;;;;;;;;776061;178;919932;-62
2021/09/18 03:51:04;;;;;;;24.83;16.10;;;;;;;;;;780230;178;919565;-62
2021/09/18 03:53:31;;;;;;;26.70;15.47;;;;;;;;;;772198;178;918522;-62
2021/09/18 03:55:56;;;;;;;24.07;15.20;;;;;;;;;;772424;177;919774;-62
2021/09/18 03:58:22;;;;;;;29.13;17.33;;;;;;;;;;768797;176;919091;-61
2021/09/18 04:00:48;;;;;;;24.90;15.90;;;;;;;;;;781878;178;922511;-63
2021/09/18 04:03:14;;;;;;;30.50;17.60;;;;;;;;;;766555;179;919336;-61
2021/09/18 04:05:39;;;;;;;23.23;15.93;;;;;;;;;;775177;177;919117;-62
2021/09/18 04:08:06;;;;;;;24.27;16.30;;;;;;;;;;784384;176;920168;-62
2021/09/18 04:10:32;;;;;;;22.83;17.23;;;;;;;;;;789471;177;920170;-64
2021/09/18 04:12:58;;;;;;;21.00;16.60;;;;;;;;;;780053;177;919008;-62
2021/09/18 04:15:24;;;;;;;22.50;16.67;;;;;;;;;;781250;175;919762;-62
2021/09/18 04:17:49;;;;;;;26.00;14.50;;;;;;;;;;782432;178;976724;-62
2021/09/18 04:20:15;;;;;;;31.03;17.53;;;;;;;;;;779383;178;919586;-62
2021/09/18 04:22:41;;;;;;;23.00;16.40;;;;;;;;;;779927;178;918555;-62
2021/09/18 04:25:07;;;;;;;33.23;15.57;;;;;;;;;;781396;175;918891;-62
2021/09/18 04:27:33;;;;;;;24.50;17.43;;;;;;;;;;788537;178;918403;-61
2021/09/18 04:29:59;;;;;;;25.00;15.80;;;;;;;;;;779606;178;919748;-62
2021/09/18 04:32:25;;;;;;;24.10;16.90;;;;;;;;;;754886;181;918032;-62
2021/09/18 04:34:51;;;;;;;22.43;16.20;;;;;;;;;;766289;179;920009;-62
2021/09/18 04:37:17;;;;;;;22.80;16.80;;;;;;;;;;777094;177;918386;-62
2021/09/18 04:39:42;;;;;;;27.10;17.30;;;;;;;;;;759027;183;918974;-63
2021/09/18 04:42:08;;;;;;;21.30;16.27;;;;;;;;;;787114;178;919812;-64
2021/09/18 04:44:34;;;;;;;24.63;16.83;;;;;;;;;;772606;178;932073;-61
2021/09/18 04:47:00;;;;;;;31.13;16.33;;;;;;;;;;758552;183;918820;-63
2021/09/18 04:49:26;;;;;;;24.90;16.57;;;;;;;;;;774445;180;921774;-62
2021/09/18 04:51:52;;;;;;;21.63;15.87;;;;;;;;;;776906;178;906108;-62
2021/09/18 04:54:18;;;;;;;22.62;14.98;;;;;;;;;;778644;175;918575;-62
2021/09/18 04:56:44;;;;;;;26.63;16.20;;;;;;;;;;776182;178;1407217;-63
2021/09/18 04:59:10;;;;;;;24.50;16.17;;;;;;;;;;782750;178;920670;-62
2021/09/18 05:01:35;;;;;;;20.57;14.97;;;;;;;;;;789271;177;936230;-63
2021/09/18 05:04:01;;;;;;;23.83;16.80;;;;;;;;;;783406;177;920914;-62
2021/09/18 05:06:27;;;;;;;22.43;16.80;;;;;;;;;;772553;180;918994;-63
2021/09/18 05:08:53;;;;;;;24.43;16.20;;;;;;;;;;774138;179;914615;-63
2021/09/18 05:11:19;;;;;;;24.40;16.53;;;;;;;;;;783707;177;914082;-64
2021/09/18 05:13:45;;;;;;;26.27;17.30;;;;;;;;;;766596;180;910383;-62
2021/09/18 05:16:11;;;;;;;21.07;15.93;;;;;;;;;;765936;179;625734;-62
2021/09/18 05:18:36;;;;;;;24.77;17.50;;;;;;;;;;773346;179;918547;-63
2021/09/18 05:21:02;;;;;;;20.50;15.57;;;;;;;;;;777574;176;919215;-62
2021/09/18 05:23:28;;;;;;;19.70;15.00;;;;;;;;;;768759;180;919099;-62
2021/09/18 05:25:54;;;;;;;22.13;15.60;;;;;;;;;;770913;179;919778;-62
2021/09/18 05:28:20;;;;;;;25.13;16.23;;;;;;;;;;781320;179;919583;-63
2021/09/18 05:30:46;;;;;;;23.90;16.93;;;;;;;;;;750001;183;920129;-63
2021/09/18 05:33:12;;;;;;;21.40;16.30;;;;;;;;;;780714;175;919212;-61
2021/09/18 05:35:38;;;;;;;30.90;18.33;;;;;;;;;;787520;178;917125;-62
2021/09/18 05:38:04;;;;;;;24.97;18.43;;;;;;;;;;761339;182;920643;-63
2021/09/18 05:40:30;;;;;;;26.57;18.40;;;;;;;;;;761133;182;918939;-63
2021/09/18 05:42:56;;;;;;;25.07;16.13;;;;;;;;;;773142;179;916353;-63
2021/09/18 05:45:22;;;;;;;23.80;17.67;;;;;;;;;;769537;177;1006978;-62
2021/09/18 05:47:48;;;;;;;22.90;17.02;;;;;;;;;;754705;183;1152217;-63
2021/09/18 05:50:14;;;;;;;23.08;17.15;;;;;;;;;;785007;175;919370;-62
2021/09/18 05:52:40;;;;;;;24.13;17.33;;;;;;;;;;771116;178;919389;-63
2021/09/18 05:55:06;;;;;;;29.33;19.80;;;;;;;;;;767531;180;922387;-63
2021/09/18 05:57:32;;;;;;;25.30;18.10;;;;;;;;;;781554;178;919322;-62
2021/09/18 05:59:58;;;;;;;24.57;17.87;;;;;;;;;;786415;178;919221;-63
2021/09/18 06:02:24;;;;;;;25.20;16.40;;;;;;;;;;779037;178;965518;-64
2021/09/18 06:04:50;;;;;;;22.70;16.90;;;;;;;;;;786186;178;885929;-63
2021/09/18 06:07:16;;;;;;;21.50;14.90;;;;;;;;;;765151;180;919295;-63
2021/09/18 06:09:41;;;;;;;22.17;16.17;;;;;;;;;;777372;178;1124511;-64
2021/09/18 06:12:07;;;;;;;24.80;16.70;;;;;;;;;;784435;178;920003;-63
2021/09/18 06:14:33;;;;;;;23.97;16.80;;;;;;;;;;784523;177;918911;-62
2021/09/18 06:16:59;;;;;;;23.43;16.27;;;;;;;;;;765205;182;627668;-62
2021/09/18 06:19:25;;;;;;;19.80;15.60;;;;;;;;;;784664;178;613466;-63
2021/09/18 06:21:51;;;;;;;22.47;17.50;;;;;;;;;;785754;177;637340;-63
2021/09/18 06:24:17;;;;;;;20.83;16.30;;;;;;;;;;782526;178;636209;-64
2021/09/18 06:26:45;;;;;;;24.33;17.10;;;;;;;;;;778317;178;1021071;-63
2021/09/18 06:29:08;;;;;;;19.57;16.50;;;;;;;;;;776932;175;919352;-62
2021/09/18 06:31:34;;;;;;;19.17;15.17;;;;;;;;;;790050;174;920465;-62
2021/09/18 06:34:00;;;;;;;24.80;16.43;;;;;;;;;;781178;175;919219;-62
2021/09/18 06:36:26;;;;;;;28.20;16.97;;;;;;;;;;794682;175;919477;-63
2021/09/18 06:38:52;;;;;;;20.40;16.17;;;;;;;;;;793435;174;918946;-62
2021/09/18 06:41:18;;;;;;;21.17;15.88;;;;;;;;;;792166;174;922507;-63
2021/09/18 06:43:45;;;;;;;20.23;14.80;;;;;;;;;;798102;175;919162;-62
2021/09/18 06:46:11;;;;;;;23.93;16.30;;;;;;;;;;792505;174;919684;-65
2021/09/18 06:48:37;;;;;;;19.70;15.37;;;;;;;;;;792401;174;920013;-65
2021/09/18 06:51:03;;;;;;;21.67;14.97;;;;;;;;;;787041;174;918965;-65
2021/09/18 06:53:31;;;;;;;23.60;15.53;;;;;;;;;;792607;175;919434;-62
2021/09/18 06:55:56;;;;;;;24.65;15.48;;;;;;;;;;788356;175;945942;-62
2021/09/18 06:58:22;;;;;;;22.47;15.20;;;;;;;;;;789141;176;917701;-62
2021/09/18 07:00:49;;;;;;;20.30;15.40;;;;;;;;;;791272;174;919606;-63
2021/09/18 07:03:15;;;;;;;22.40;15.83;;;;;;;;;;788039;175;919397;-63
2021/09/18 07:05:42;;;;;;;21.40;16.23;;;;;;;;;;789763;175;920633;-63
2021/09/18 07:08:09;;;;;;;20.23;14.90;;;;;;;;;;793431;175;1020137;-61
2021/09/18 07:10:36;;;;;;;21.10;16.30;;;;;;;;;;779594;178;920443;-63
2021/09/18 07:13:03;;;;;;;20.90;15.73;;;;;;;;;;793982;174;922361;-63
2021/09/18 07:15:29;;;;;;;21.70;16.70;;;;;;;;;;790891;175;918375;-65
2021/09/18 07:17:55;;;;;;;20.13;16.90;;;;;;;;;;795083;175;918041;-63
2021/09/18 07:20:22;;;;;;;21.57;15.33;;;;;;;;;;790326;175;916339;-63
2021/09/18 07:22:49;;;;;;;23.53;16.30;;;;;;;;;;787921;175;917457;-63
2021/09/18 07:25:16;;;;;;;21.03;15.80;;;;;;;;;;796621;175;917316;-63
2021/09/18 07:27:43;;;;;;;22.60;15.47;;;;;;;;;;790621;175;918960;-62
2021/09/18 07:30:10;;;;;;;21.60;17.30;;;;;;;;;;761186;180;920103;-63
2021/09/18 07:32:36;;;;;;;25.17;18.57;;;;;;;;;;777655;178;919630;-63
2021/09/18 07:35:05;;;;;;;20.30;16.60;;;;;;;;;;784052;174;919470;-63
2021/09/18 07:37:28;;;;;;;22.40;18.00;;;;;;;;;;759260;180;920045;-63
2021/09/18 07:39:56;;;;;;;22.57;17.30;;;;;;;;;;763674;180;920408;-63
2021/09/18 07:42:22;;;;;;;26.07;19.20;;;;;;;;;;784183;175;919204;-64
2021/09/18 07:44:48;;;;;;;23.73;18.67;;;;;;;;;;765745;180;921041;-66
2021/09/18 07:47:14;;;;;;;21.67;15.93;;;;;;;;;;767998;180;920978;-64
2021/09/18 07:49:41;;;;;;;20.57;16.47;;;;;;;;;;765041;180;922884;-64
2021/09/18 07:52:08;;;;;;;20.43;15.50;;;;;;;;;;777930;176;919335;-64
2021/09/18 07:54:34;;;;;;;15.83;12.53;;;;;;;;;;770232;176;918892;-65
2021/09/18 07:57:00;;;;;;;27.90;16.40;;;;;;;;;;790195;174;914816;-64
2021/09/18 07:59:26;;;;;;;21.43;15.73;;;;;;;;;;795726;174;916955;-64
2021/09/18 08:01:52;;;;;;;19.83;14.83;;;;;;;;;;794034;174;921026;-64
2021/09/18 08:04:18;;;;;;;19.80;16.23;;;;;;;;;;787500;175;921456;-64
2021/09/18 08:06:46;;;;;;;23.50;16.67;;;;;;;;;;796215;175;918567;-63
2021/09/18 08:09:13;;;;;;;21.27;15.37;;;;;;;;;;775245;174;914375;-64
2021/09/18 08:11:39;;;;;;;19.03;13.57;;;;;;;;;;773904;176;916587;-64
2021/09/18 08:14:05;;;;;;;19.23;15.70;;;;;;;;;;755233;180;1041045;-64
2021/09/18 08:16:31;;;;;;;18.53;15.23;;;;;;;;;;788158;178;782807;-64
2021/09/18 08:18:56;;;;;;;19.30;15.83;;;;;;;;;;780866;175;916191;-64
2021/09/18 08:21:22;;;;;;;17.57;15.53;;;;;;;;;;781497;175;919710;-64
2021/09/18 08:23:49;;;;;;;13.73;11.67;;;;;;;;;;786074;175;917182;-65
2021/09/18 08:26:15;;;;;;;12.77;11.20;;;;;;;;;;778372;178;916014;-65
2021/09/18 08:28:43;;;;;;;12.53;11.23;;;;;;;;;;782297;178;919367;-65
2021/09/18 08:31:09;;;;;;;17.77;13.47;;;;;;;;;;783365;178;623133;-65
2021/09/18 08:33:39;;;;;;;15.30;13.20;;;;;;;;;;787184;178;916118;-64
2021/09/18 08:36:06;;;;;;;13.20;11.80;;;;;;;;;;781611;178;919721;-67
2021/09/18 08:38:32;;;;;;;13.67;12.23;;;;;;;;;;777914;178;920091;-64
2021/09/18 08:40:58;;;;;;;10.67;9.57;;;;;;;;;;782793;178;915415;-64
2021/09/18 08:43:26;;;;;;;12.43;11.00;;;;;;;;;;779101;178;915565;-65
2021/09/18 08:45:52;;;;;;;12.10;10.23;;;;;;;;;;780027;178;1010897;-64
2021/09/18 08:48:18;;;;;;;16.47;13.17;;;;;;;;;;779167;178;919710;-65
2021/09/18 08:50:45;;;;;;;15.50;12.30;;;;;;;;;;771885;178;919250;-64
2021/09/18 08:53:11;;;;;;;14.80;11.93;;;;;;;;;;779278;178;918814;-64
2021/09/18 08:55:37;;;;;;;18.37;12.57;;;;;;;;;;782106;176;919057;-64
2021/09/18 08:58:03;;;;;;;15.33;13.17;;;;;;;;;;786664;174;919732;-65
2021/09/18 09:00:44;;;;;;;14.10;10.53;;;;;;;;;;782217;175;971025;-64
2021/09/18 09:03:10;;;;;;;10.47;9.37;;;;;;;;;;775202;179;919502;-65
2021/09/18 09:05:36;;;;;;;12.03;10.80;;;;;;;;;;781486;178;918860;-64
2021/09/18 09:08:05;;;;;;;13.40;10.80;;;;;;;;;;787291;177;916844;-64
2021/09/18 09:10:31;;;;;;;12.93;10.87;;;;;;;;;;780790;179;918449;-65
2021/09/18 09:12:57;;;;;;;10.93;9.40;;;;;;;;;;780080;178;918944;-65
2021/09/18 09:15:24;;;;;;;10.37;9.27;;;;;;;;;;776361;178;918436;-64
2021/09/18 09:17:52;;;;;;;11.77;9.50;;;;;;;;;;778673;178;919277;-65
2021/09/18 09:20:27;;;;;;;13.95;10.55;;;;;;;;;;776907;179;919131;-64
2021/09/18 09:22:52;;;;;;;13.73;11.60;;;;;;;;;;792679;175;919284;-65
2021/09/18 09:25:35;;;;;;;15.73;10.50;;;;;;;;;;779088;178;919068;-64
2021/09/18 09:28:02;;;;;;;12.93;10.40;;;;;;;;;;779705;175;919268;-65
2021/09/18 09:30:28;;;;;;;12.70;10.77;;;;;;;;;;782218;178;920415;-65
2021/09/18 09:32:54;;;;;;;15.97;12.00;;;;;;;;;;779767;178;934428;-64
2021/09/18 09:35:20;;;;;;;17.30;12.83;;;;;;;;;;779659;178;919124;-65
2021/09/18 09:37:50;;;;;;;13.40;12.03;;;;;;;;;;785170;178;919118;-65
2021/09/18 09:40:16;;;;;;;13.63;11.83;;;;;;;;;;780597;176;918119;-65
2021/09/18 09:42:42;;;;;;;13.90;12.40;;;;;;;;;;759636;180;918963;-66
2021/09/18 09:45:12;;;;;;;13.13;10.25;;;;;;;;;;777728;177;919243;-64
2021/09/18 09:47:37;;;;;;;14.03;10.10;;;;;;;;;;788356;177;920746;-64
2021/09/18 09:50:04;;;;;;;9.53;8.60;;;;;;;;;;786696;177;917044;-64
2021/09/18 09:52:30;;;;;;;11.13;9.10;;;;;;;;;;758525;182;919798;-66
2021/09/18 09:54:58;;;;;;;10.40;8.70;;;;;;;;;;777463;178;919971;-65
2021/09/18 09:57:21;;;;;;;11.07;7.37;;;;;;;;;;776457;177;920158;-65
2021/09/18 09:59:47;;;;;;;7.13;6.03;;;;;;;;;;778020;178;1122722;-67
2021/09/18 10:02:13;;;;;;;7.75;5.75;;;;;;;;;;772252;180;917911;-67
2021/09/18 10:04:39;;;;;;;6.27;5.67;;;;;;;;;;773395;180;920525;-65
2021/09/18 10:07:05;;;;;;;7.53;5.40;;;;;;;;;;774975;179;919304;-65
2021/09/18 10:09:31;;;;;;;5.47;4.67;;;;;;;;;;774370;180;917481;-65
2021/09/18 10:11:56;;;;;;;5.57;4.97;;;;;;;;;;783873;175;918409;-65
2021/09/18 10:14:22;;;;;;;8.17;6.10;;;;;;;;;;764542;179;916161;-65
2021/09/18 10:16:48;;;;;;;7.20;6.33;;;;;;;;;;767226;179;978696;-65
2021/09/18 10:19:15;;;;;;;7.13;5.53;;;;;;;;;;777366;179;912730;-67
2021/09/18 10:24:11;;;;;;;7.00;5.53;;;;;;;;;;775686;175;918138;-65
2021/09/18 10:26:37;;;;;;;7.90;5.40;;;;;;;;;;770806;180;919594;-65
2021/09/18 10:29:03;;;;;;;6.00;5.23;;;;;;;;;;786884;178;918971;-65
2021/09/18 10:31:29;;;;;;;5.20;4.40;;;;;;;;;;771895;179;915985;-63
2021/09/18 10:33:55;;;;;;;6.32;4.50;;;;;;;;;;794741;175;916390;-66
2021/09/18 10:36:40;;;;;;;4.40;4.00;;;;;;;;;;768465;180;945434;-65
2021/09/18 10:39:09;;;;;;;3.40;3.10;;;;;;;;;;783379;178;916879;-66
2021/09/18 10:41:40;;;;;;;5.73;4.37;;;;;;;;;;782266;177;904953;-65
2021/09/18 10:44:06;;;;;;;6.30;4.20;;;;;;;;;;780833;178;943843;-66
2021/09/18 10:46:46;;;;;;;5.20;3.70;;;;;;;;;;771678;179;941967;-66
2021/09/18 10:49:18;;;;;;;4.67;4.13;;;;;;;;;;766930;178;919044;-65
2021/09/18 10:51:44;;;;;;;5.00;4.25;;;;;;;;;;778661;178;919321;-64
2021/09/18 10:54:11;;;;;;;6.10;3.87;;;;;;;;;;779545;179;916404;-65
2021/09/18 10:56:42;;;;;;;4.80;3.93;;;;;;;;;;755129;183;919730;-65
2021/09/18 10:59:08;;;;;;;6.23;3.90;;;;;;;;;;765177;182;919664;-66
2021/09/18 11:01:34;;;;;;;6.70;4.17;;;;;;;;;;772173;181;919303;-66
2021/09/18 11:04:00;;;;;;;6.47;4.37;;;;;;;;;;780489;178;919714;-65
2021/09/18 11:06:32;;;;;;;8.03;4.00;;;;;;;;;;778450;178;919063;-65
2021/09/18 11:08:57;;;;;;;4.57;3.40;;;;;;;;;;779011;178;919528;-65
2021/09/18 11:11:23;;;;;;;4.17;3.17;;;;;;;;;;779267;178;919245;-66
2021/09/18 11:13:49;;;;;;;4.10;3.03;;;;;;;;;;781151;178;918501;-65
2021/09/18 11:16:17;;;;;;;4.50;3.60;;;;;;;;;;769129;180;919393;-66
2021/09/18 11:18:43;;;;;;;3.07;2.20;;;;;;;;;;775493;178;918561;-65
2021/09/18 11:21:13;;;;;;;4.87;3.40;;;;;;;;;;778818;176;918940;-67
2021/09/18 11:23:45;;;;;;;5.93;3.10;;;;;;;;;;768281;179;919496;-66
2021/09/18 11:26:17;;;;;;;9.93;5.40;;;;;;;;;;782011;174;918301;-66
2021/09/18 11:28:43;;;;;;;5.13;3.57;;;;;;;;;;768904;179;919466;-66
2021/09/18 11:31:09;;;;;;;5.40;3.80;;;;;;;;;;774248;179;919625;-68
2021/09/18 11:33:34;;;;;;;14.35;5.50;;;;;;;;;;772334;178;920356;-70
2021/09/18 11:36:00;;;;;;;11.00;4.90;;;;;;;;;;760946;181;919777;-69
2021/09/18 11:38:26;;;;;;;3.30;2.83;;;;;;;;;;784781;176;919435;-70
2021/09/18 11:40:52;;;;;;;4.70;3.20;;;;;;;;;;775759;177;918901;-68
2021/09/18 11:43:23;;;;;;;4.97;3.03;;;;;;;;;;769465;180;918839;-69
2021/09/18 11:45:49;;;;;;;4.10;3.37;;;;;;;;;;767546;180;919147;-68
2021/09/18 11:48:21;;;;;;;5.10;2.63;;;;;;;;;;767765;180;919095;-69
2021/09/18 11:50:41;;;;;;;7.27;4.50;;;;;;;;;;763855;178;1737771;-69
2021/09/18 11:53:07;;;;;;;6.13;4.17;;;;;;;;;;769588;180;919081;-68
2021/09/18 11:55:35;;;;;;;3.80;3.30;;;;;;;;;;769282;180;917751;-69
2021/09/18 11:58:01;;;;;;;4.43;3.40;;;;;;;;;;775470;179;1123821;-69
2021/09/18 12:00:27;;;;;;;3.73;3.03;;;;;;;;;;778018;177;919258;-68
2021/09/18 12:02:55;;;;;;;3.60;2.83;;;;;;;;;;775915;180;919125;-69
2021/09/18 12:05:21;;;;;;;3.60;2.50;;;;;;;;;;777530;176;919233;-69
2021/09/18 12:07:47;;;;;;;10.73;3.42;;;;;;;;;;769204;179;919457;-69
2021/09/18 12:10:15;;;;;;;3.70;2.70;;;;;;;;;;768703;179;919264;-68
2021/09/18 12:12:39;;;;;;;8.53;4.40;;;;;;;;;;777422;180;919204;-69
2021/09/18 12:15:05;;;;;;;4.60;3.47;;;;;;;;;;768202;179;921416;-65
2021/09/18 12:17:31;;;;;;;3.10;2.20;;;;;;;;;;763561;179;920471;-67
2021/09/18 12:19:58;;;;;;;5.30;3.93;;;;;;;;;;775351;179;919695;-65
2021/09/18 12:22:23;;;;;;;3.93;2.77;;;;;;;;;;769317;180;920229;-68
2021/09/18 12:24:50;;;;;;;4.68;2.85;;;;;;;;;;778927;177;946759;-67
2021/09/18 12:27:21;;;;;;;4.60;3.20;;;;;;;;;;781099;178;918755;-68
2021/09/18 12:29:53;;;;;;;4.33;3.27;;;;;;;;;;759539;183;920591;-69
2021/09/18 12:32:18;;;;;;;5.40;4.00;;;;;;;;;;773541;179;918891;-69
2021/09/18 12:34:44;;;;;;;3.67;3.20;;;;;;;;;;772526;180;918159;-69
2021/09/18 12:37:10;;;;;;;5.23;4.00;;;;;;;;;;785679;178;918832;-68
2021/09/18 12:39:36;;;;;;;4.10;3.07;;;;;;;;;;760528;182;941009;-67
2021/09/18 12:42:02;;;;;;;4.30;3.10;;;;;;;;;;778612;178;912549;-68
2021/09/18 12:44:28;;;;;;;3.93;3.17;;;;;;;;;;780548;178;919688;-67
2021/09/18 12:46:53;;;;;;;4.80;3.77;;;;;;;;;;782505;178;918868;-68
2021/09/18 12:49:19;;;;;;;8.00;4.00;;;;;;;;;;761426;182;920781;-67
2021/09/18 12:51:45;;;;;;;4.30;3.27;;;;;;;;;;779785;178;918714;-67
2021/09/18 12:54:14;;;;;;;5.87;3.43;;;;;;;;;;783936;178;927699;-67
2021/09/18 12:56:40;;;;;;;5.03;3.97;;;;;;;;;;770673;180;918857;-68
2021/09/18 12:59:14;;;;;;;4.50;3.67;;;;;;;;;;777772;178;920178;-67
2021/09/18 13:01:41;;;;;;;6.60;4.50;;;;;;;;;;779134;178;917621;-68
2021/09/18 13:04:09;;;;;;;6.33;3.77;;;;;;;;;;785869;177;919052;-68
2021/09/18 13:06:34;;;;;;;4.53;3.73;;;;;;;;;;761854;180;919550;-69
2021/09/18 13:09:03;;;;;;;5.55;4.43;;;;;;;;;;765187;179;919132;-69
2021/09/18 13:11:29;;;;;;;6.03;5.20;;;;;;;;;;767880;181;918628;-69
2021/09/18 13:13:55;;;;;;;4.82;3.75;;;;;;;;;;763021;181;918406;-69
2021/09/18 13:16:21;;;;;;;6.70;3.47;;;;;;;;;;776802;178;919496;-69
2021/09/18 13:18:53;;;;;;;4.28;3.70;;;;;;;;;;776520;176;918730;-68
2021/09/18 13:21:19;;;;;;;8.47;4.23;;;;;;;;;;786498;175;918594;-69
2021/09/18 13:23:45;;;;;;;7.82;4.25;;;;;;;;;;763382;182;920146;-69
2021/09/18 13:26:11;;;;;;;5.87;4.40;;;;;;;;;;782520;178;919898;-69
2021/09/18 13:28:36;;;;;;;9.60;6.40;;;;;;;;;;780068;178;918232;-70
2021/09/18 13:31:02;;;;;;;6.07;4.77;;;;;;;;;;764098;181;915747;-70
2021/09/18 13:33:30;;;;;;;9.47;4.37;;;;;;;;;;777091;178;916872;-69
2021/09/18 13:35:55;;;;;;;4.30;3.50;;;;;;;;;;778424;178;918143;-69
2021/09/18 13:38:21;;;;;;;4.27;3.70;;;;;;;;;;784567;178;819207;-68
2021/09/18 13:40:47;;;;;;;3.87;3.12;;;;;;;;;;763958;181;918210;-70
2021/09/18 13:43:12;;;;;;;4.40;2.90;;;;;;;;;;781724;177;1017009;-69
2021/09/18 13:45:38;;;;;;;4.77;3.33;;;;;;;;;;786105;178;919168;-69
2021/09/18 13:48:04;;;;;;;4.47;3.10;;;;;;;;;;781991;175;919043;-69
2021/09/18 13:50:30;;;;;;;7.10;3.57;;;;;;;;;;780759;178;917772;-69
2021/09/18 13:52:56;;;;;;;6.23;3.40;;;;;;;;;;772532;179;968180;-68
2021/09/18 13:55:22;;;;;;;5.47;2.87;;;;;;;;;;773004;179;681835;-71
2021/09/18 13:57:48;;;;;;;5.77;3.80;;;;;;;;;;782064;178;919748;-69
2021/09/18 14:00:14;;;;;;;4.90;3.10;;;;;;;;;;769997;179;881560;-69
2021/09/18 14:02:40;;;;;;;5.70;3.73;;;;;;;;;;772719;179;920603;-69
2021/09/18 14:05:07;;;;;;;9.50;3.10;;;;;;;;;;767256;179;918331;-69
2021/09/18 14:07:33;;;;;;;5.03;4.00;;;;;;;;;;782539;176;940884;-69
2021/09/18 14:10:00;;;;;;;5.07;3.57;;;;;;;;;;776892;177;624108;-70